Time;durP1;ratioP1;P1;durP2;ratioP2;P2;SDS_P1;SDS_P2;PMS_P1;PMS_P2;Temp;Humidity;BMP_temperature;BMP_pressure;BME280_temperature;BME280_humidity;BME280_pressure;Samples;Min_cycle;Max_cycle;Signal;HPM_P1;HPM_P2
2022/11/14 00:01:09;;;;;;;13.50;12.10;;;8.90;99.90;;;;;;5052184;28;20194;-68
2022/11/14 00:03:35;;;;;;;14.37;11.80;;;8.70;99.90;;;;;;5051146;28;20221;-67
2022/11/14 00:06:05;;;;;;;12.00;10.70;;;8.70;99.90;;;;;;5053603;28;20938;-67
2022/11/14 00:08:31;;;;;;;12.50;11.20;;;8.70;99.90;;;;;;5052906;28;20468;-72
2022/11/14 00:10:57;;;;;;;13.27;11.87;;;8.70;99.90;;;;;;5051350;28;20444;-67
2022/11/14 00:13:22;;;;;;;15.40;12.80;;;8.70;99.90;;;;;;5053298;28;20174;-67
2022/11/14 00:15:50;;;;;;;12.03;10.80;;;8.60;99.90;;;;;;5052250;28;20240;-68
2022/11/14 00:18:17;;;;;;;11.87;10.57;;;8.60;99.90;;;;;;5053080;28;20256;-68
2022/11/14 00:20:42;;;;;;;13.60;11.40;;;8.60;99.90;;;;;;5017291;28;20503;-67
2022/11/14 00:23:08;;;;;;;13.80;12.50;;;8.50;99.90;;;;;;5052281;28;20526;-68
2022/11/14 00:25:34;;;;;;;13.63;12.27;;;8.60;99.90;;;;;;5051330;28;20189;-68
2022/11/14 00:27:59;;;;;;;13.47;12.00;;;8.60;99.90;;;;;;5052890;28;20675;-69
2022/11/14 00:30:26;;;;;;;12.77;11.47;;;8.50;99.90;;;;;;5053102;28;20602;-69
2022/11/14 00:32:52;;;;;;;12.97;11.70;;;8.50;99.90;;;;;;5052268;28;20520;-69
2022/11/14 00:35:18;;;;;;;13.40;12.20;;;8.50;99.90;;;;;;5052797;28;20491;-69
2022/11/14 00:37:43;;;;;;;13.87;12.50;;;8.50;99.90;;;;;;5052266;28;20169;-69
2022/11/14 00:40:09;;;;;;;11.97;10.77;;;8.40;99.90;;;;;;5052739;28;20203;-69
2022/11/14 00:42:35;;;;;;;11.90;10.77;;;8.30;99.90;;;;;;5052463;28;20188;-70
2022/11/14 00:45:01;;;;;;;14.87;12.33;;;8.40;99.90;;;;;;5033937;28;20950;-68
2022/11/14 00:47:26;;;;;;;13.43;11.90;;;8.40;99.90;;;;;;5052588;28;20261;-69
2022/11/14 00:49:52;;;;;;;17.40;12.47;;;8.40;99.90;;;;;;5051773;28;20185;-69
2022/11/14 00:52:18;;;;;;;13.50;12.20;;;8.40;99.90;;;;;;5051908;28;20687;-69
2022/11/14 00:54:43;;;;;;;14.30;12.93;;;8.40;99.90;;;;;;5051891;28;20221;-69
2022/11/14 00:57:09;;;;;;;13.33;11.93;;;8.30;99.90;;;;;;5052593;28;20200;-69
2022/11/14 00:59:35;;;;;;;14.30;12.70;;;8.30;99.90;;;;;;5051650;28;20184;-72
2022/11/14 01:02:01;;;;;;;14.33;12.57;;;8.20;99.90;;;;;;5051794;28;20696;-69
2022/11/14 01:04:27;;;;;;;15.60;14.00;;;8.30;99.90;;;;;;5051671;28;20193;-68
2022/11/14 01:06:52;;;;;;;14.50;12.97;;;8.20;99.90;;;;;;5050541;28;20371;-69
2022/11/14 01:09:18;;;;;;;13.37;12.00;;;8.20;99.90;;;;;;5034776;28;20503;-69
2022/11/14 01:11:44;;;;;;;13.43;12.07;;;8.20;99.90;;;;;;5051598;28;20184;-69
2022/11/14 01:14:09;;;;;;;14.70;13.20;;;8.20;99.90;;;;;;5051496;28;20205;-68
2022/11/14 01:16:35;;;;;;;14.90;13.43;;;8.20;99.90;;;;;;5051217;28;20215;-72
2022/11/14 01:19:02;;;;;;;13.60;12.30;;;8.20;99.90;;;;;;5052257;28;20267;-68
2022/11/14 01:21:30;;;;;;;12.47;11.27;;;8.20;99.90;;;;;;5052316;28;20188;-68
2022/11/14 01:23:55;;;;;;;13.20;11.80;;;8.20;99.90;;;;;;5050643;28;20552;-68
2022/11/14 01:26:21;;;;;;;13.23;11.83;;;8.10;99.90;;;;;;5052237;28;20992;-69
2022/11/14 01:28:47;;;;;;;13.20;11.90;;;8.10;99.90;;;;;;5051708;28;20651;-69
2022/11/14 01:31:19;;;;;;;13.00;11.67;;;8.10;99.90;;;;;;5051905;28;20226;-69
2022/11/14 01:33:48;;;;;;;14.37;12.47;;;8.10;99.90;;;;;;5050956;28;20669;-69
2022/11/14 01:36:14;;;;;;;13.90;12.40;;;8.10;99.90;;;;;;5051976;28;20419;-69
2022/11/14 01:38:39;;;;;;;14.60;11.97;;;8.10;99.90;;;;;;5051263;28;20806;-69
2022/11/14 01:41:06;;;;;;;14.50;11.97;;;8.00;99.90;;;;;;5051120;28;20439;-69
2022/11/14 01:43:37;;;;;;;12.60;11.40;;;7.90;99.90;;;;;;5051306;28;20228;-69
2022/11/14 01:46:29;;;;;;;15.13;11.87;;;7.80;99.90;;;;;;5052151;28;20435;-68
2022/11/14 01:49:03;;;;;;;15.57;12.00;;;7.80;99.90;;;;;;5037520;28;21044;-69
2022/11/14 01:51:29;;;;;;;12.33;10.93;;;7.80;99.90;;;;;;5037533;28;20821;-69
2022/11/14 01:53:58;;;;;;;13.37;12.00;;;7.80;99.90;;;;;;5055168;28;20444;-69
2022/11/14 01:56:47;;;;;;;14.33;12.37;;;7.80;99.90;;;;;;5055229;28;20272;-69
2022/11/14 01:59:19;;;;;;;14.20;11.03;;;7.90;99.90;;;;;;5038179;28;20439;-69
2022/11/14 02:01:50;;;;;;;12.27;11.07;;;7.90;99.90;;;;;;5055178;28;20414;-69
2022/11/14 02:04:26;;;;;;;13.53;11.93;;;7.90;99.90;;;;;;5055007;28;20406;-69
2022/11/14 02:06:56;;;;;;;12.53;11.23;;;7.90;99.90;;;;;;5050724;28;20978;-69
2022/11/14 02:09:22;;;;;;;11.63;10.43;;;7.90;99.90;;;;;;5038024;28;20785;-69
2022/11/14 02:11:50;;;;;;;15.03;10.97;;;7.90;99.90;;;;;;5034714;28;20456;-68
2022/11/14 02:14:17;;;;;;;16.53;10.47;;;7.80;99.90;;;;;;5043462;28;20569;-68
2022/11/14 02:16:43;;;;;;;11.70;10.50;;;7.80;99.90;;;;;;5054411;28;20507;-68
2022/11/14 02:19:09;;;;;;;12.93;10.77;;;7.80;99.90;;;;;;5037760;28;20187;-68
2022/11/14 02:21:35;;;;;;;12.33;9.83;;;7.80;99.90;;;;;;5054565;28;20934;-68
2022/11/14 02:24:00;;;;;;;11.77;10.03;;;7.80;99.90;;;;;;5054684;28;20477;-68
2022/11/14 02:26:26;;;;;;;11.00;10.00;;;7.80;99.90;;;;;;5055431;28;20275;-68
2022/11/14 02:28:53;;;;;;;11.70;9.50;;;7.70;99.90;;;;;;5053455;28;20426;-68
2022/11/14 02:31:19;;;;;;;11.20;9.97;;;7.70;99.90;;;;;;5054680;28;20478;-68
2022/11/14 02:33:44;;;;;;;11.77;9.67;;;7.70;99.90;;;;;;5054120;28;20490;-69
2022/11/14 02:36:10;;;;;;;10.50;9.47;;;7.70;99.90;;;;;;5053933;28;20184;-68
2022/11/14 02:38:36;;;;;;;10.13;8.80;;;7.70;99.90;;;;;;5055145;28;20192;-68
2022/11/14 02:41:02;;;;;;;10.23;8.83;;;7.70;99.90;;;;;;5052977;28;20199;-68
2022/11/14 02:43:27;;;;;;;10.50;8.80;;;7.70;99.90;;;;;;5054900;28;20283;-68
2022/11/14 02:45:53;;;;;;;9.93;8.93;;;7.70;99.90;;;;;;5035733;28;20815;-68
2022/11/14 02:48:19;;;;;;;10.53;9.50;;;7.70;99.90;;;;;;5054989;28;20411;-68
2022/11/14 02:50:47;;;;;;;10.37;9.27;;;7.70;99.90;;;;;;5054210;28;20675;-69
2022/11/14 02:53:13;;;;;;;10.27;9.00;;;7.70;99.90;;;;;;5053946;28;20207;-68
2022/11/14 02:55:39;;;;;;;12.70;8.57;;;7.70;99.90;;;;;;5054587;28;20423;-70
2022/11/14 02:58:06;;;;;;;33.27;9.57;;;7.70;99.90;;;;;;5054308;28;20414;-68
2022/11/14 03:00:32;;;;;;;10.57;8.97;;;7.70;99.90;;;;;;5054037;28;20219;-68
2022/11/14 03:02:57;;;;;;;10.47;7.93;;;7.70;99.90;;;;;;5054195;28;20408;-68
2022/11/14 03:05:23;;;;;;;10.63;9.53;;;7.70;99.90;;;;;;5052849;28;20219;-69
2022/11/14 03:07:53;;;;;;;10.73;9.00;;;7.70;99.90;;;;;;5053704;28;20304;-68
2022/11/14 03:10:19;;;;;;;10.80;9.70;;;7.80;99.90;;;;;;5054375;28;20457;-68
2022/11/14 03:12:45;;;;;;;12.40;10.03;;;7.70;99.90;;;;;;5053673;28;20412;-69
2022/11/14 03:15:11;;;;;;;13.10;10.30;;;7.70;99.90;;;;;;5036426;28;20474;-68
2022/11/14 03:17:37;;;;;;;11.43;10.33;;;7.70;99.90;;;;;;5035452;28;20401;-67
2022/11/14 03:20:03;;;;;;;12.00;10.20;;;7.70;99.90;;;;;;5053625;28;20938;-67
2022/11/14 03:22:29;;;;;;;12.53;10.70;;;7.70;99.90;;;;;;5035054;28;20749;-68
2022/11/14 03:24:55;;;;;;;12.23;10.83;;;7.70;99.90;;;;;;5052783;28;20409;-68
2022/11/14 03:27:20;;;;;;;12.77;10.70;;;7.70;99.90;;;;;;5053995;28;20223;-68
2022/11/14 03:29:47;;;;;;;12.97;11.67;;;7.70;99.90;;;;;;5053361;28;20186;-68
2022/11/14 03:32:13;;;;;;;11.60;10.47;;;7.70;99.90;;;;;;5053301;28;20506;-68
2022/11/14 03:34:38;;;;;;;13.60;11.77;;;7.70;99.80;;;;;;5054109;28;20513;-68
2022/11/14 03:37:04;;;;;;;12.37;10.93;;;7.70;99.90;;;;;;5051869;28;20186;-68
2022/11/14 03:39:30;;;;;;;12.70;11.33;;;7.70;99.90;;;;;;5036610;28;20275;-68
2022/11/14 03:41:55;;;;;;;12.10;10.80;;;7.70;99.90;;;;;;5052894;28;20188;-68
2022/11/14 03:44:21;;;;;;;12.80;11.53;;;7.70;99.80;;;;;;5054051;28;20216;-68
2022/11/14 03:46:47;;;;;;;11.93;10.23;;;7.70;99.70;;;;;;5053119;28;20182;-68
2022/11/14 03:49:12;;;;;;;11.23;10.10;;;7.70;99.90;;;;;;5053850;28;20638;-67
2022/11/14 03:51:38;;;;;;;11.77;10.17;;;7.60;99.90;;;;;;5052859;28;20260;-67
2022/11/14 03:54:04;;;;;;;11.23;10.17;;;7.70;99.90;;;;;;5052941;28;20204;-67
2022/11/14 03:56:29;;;;;;;9.10;8.20;;;7.70;99.90;;;;;;5052938;28;20270;-68
2022/11/14 03:58:55;;;;;;;10.13;9.10;;;7.70;99.90;;;;;;5052658;28;20625;-68
2022/11/14 04:01:21;;;;;;;11.00;10.00;;;7.70;99.90;;;;;;5052882;28;20254;-68
2022/11/14 04:03:47;;;;;;;8.90;8.00;;;7.80;99.90;;;;;;5052770;28;20193;-69
2022/11/14 04:06:12;;;;;;;10.17;9.17;;;7.70;99.90;;;;;;5053528;28;20177;-68
2022/11/14 04:08:41;;;;;;;9.63;8.73;;;7.70;99.60;;;;;;5052695;28;20492;-68
2022/11/14 04:11:07;;;;;;;9.27;8.40;;;7.70;99.60;;;;;;5052967;28;20546;-68
2022/11/14 04:13:32;;;;;;;8.60;7.80;;;7.70;99.90;;;;;;5053203;28;20407;-68
2022/11/14 04:15:58;;;;;;;9.03;8.13;;;7.70;99.90;;;;;;5052347;28;20172;-68
2022/11/14 04:18:25;;;;;;;9.13;8.23;;;7.70;99.60;;;;;;5053349;28;20181;-68
2022/11/14 04:20:51;;;;;;;9.07;8.27;;;7.70;99.30;;;;;;5048900;28;20477;-69
2022/11/14 04:23:18;;;;;;;8.80;7.97;;;7.60;99.50;;;;;;5053310;28;20407;-68
2022/11/14 04:25:45;;;;;;;9.20;8.10;;;7.70;99.70;;;;;;5052263;28;20437;-71
2022/11/14 04:28:11;;;;;;;8.17;7.40;;;7.60;99.90;;;;;;5053039;28;20465;-68
2022/11/14 04:30:37;;;;;;;10.33;7.10;;;7.60;99.80;;;;;;5053100;28;20439;-68
2022/11/14 04:33:03;;;;;;;7.87;7.07;;;7.60;99.80;;;;;;5052245;28;20435;-68
2022/11/14 04:35:28;;;;;;;8.10;7.20;;;7.60;99.90;;;;;;5052931;28;20215;-68
2022/11/14 04:37:54;;;;;;;7.53;6.83;;;7.60;99.90;;;;;;5034173;28;20416;-67
2022/11/14 04:40:20;;;;;;;7.90;7.10;;;7.60;99.90;;;;;;5052138;28;20213;-68
2022/11/14 04:42:47;;;;;;;8.87;8.20;;;7.60;99.80;;;;;;5052238;28;20180;-71
2022/11/14 04:45:12;;;;;;;8.80;7.90;;;7.60;99.90;;;;;;5033813;28;20179;-68
2022/11/14 04:47:40;;;;;;;9.07;8.30;;;7.50;99.70;;;;;;5052782;28;20888;-68
2022/11/14 04:50:06;;;;;;;7.60;7.00;;;7.50;99.90;;;;;;5051940;28;20393;-68
2022/11/14 04:52:32;;;;;;;7.97;7.27;;;7.50;99.60;;;;;;5052759;28;20407;-68
2022/11/14 04:54:58;;;;;;;8.70;7.47;;;7.60;99.90;;;;;;5051050;28;20995;-68
2022/11/14 04:57:24;;;;;;;6.93;6.43;;;7.60;99.90;;;;;;5052606;28;20499;-68
2022/11/14 04:59:49;;;;;;;7.37;6.67;;;7.70;99.90;;;;;;5051857;28;20192;-71
2022/11/14 05:02:15;;;;;;;7.03;6.37;;;7.60;99.90;;;;;;5051965;28;20190;-68
2022/11/14 05:04:43;;;;;;;10.50;9.60;;;7.60;99.90;;;;;;5051695;28;20265;-68
2022/11/14 05:07:09;;;;;;;8.03;7.00;;;7.60;99.60;;;;;;5051337;28;20213;-68
2022/11/14 05:09:35;;;;;;;7.63;6.93;;;7.50;99.30;;;;;;5030044;28;20422;-68
2022/11/14 05:12:02;;;;;;;9.20;8.40;;;7.50;99.20;;;;;;5032997;28;20948;-68
2022/11/14 05:14:28;;;;;;;9.07;8.37;;;7.50;99.40;;;;;;5052381;28;20541;-68
2022/11/14 05:16:54;;;;;;;7.47;6.77;;;7.50;99.20;;;;;;5051566;28;20513;-69
2022/11/14 05:19:19;;;;;;;7.80;7.10;;;7.50;99.40;;;;;;5051880;28;20655;-68
2022/11/14 05:21:45;;;;;;;7.30;6.60;;;7.40;99.20;;;;;;5050600;28;20194;-68
2022/11/14 05:24:11;;;;;;;8.43;7.73;;;7.40;99.50;;;;;;5050757;28;20264;-69
2022/11/14 05:26:37;;;;;;;7.50;6.73;;;7.40;99.70;;;;;;5051920;28;20176;-68
2022/11/14 05:29:03;;;;;;;8.10;7.40;;;7.40;99.70;;;;;;5051376;28;20172;-69
2022/11/14 05:31:29;;;;;;;7.27;6.50;;;7.40;99.40;;;;;;5051576;28;20452;-69
2022/11/14 05:33:54;;;;;;;8.27;7.57;;;7.30;99.50;;;;;;5031896;28;20490;-69
2022/11/14 05:36:20;;;;;;;8.70;7.93;;;7.30;99.70;;;;;;5051779;28;20178;-69
2022/11/14 05:38:46;;;;;;;8.40;6.80;;;7.30;99.50;;;;;;5051427;28;20259;-70
2022/11/14 05:41:14;;;;;;;6.80;6.20;;;7.30;99.60;;;;;;5050648;28;20190;-68
2022/11/14 05:43:40;;;;;;;7.63;6.87;;;7.20;99.80;;;;;;5052020;28;20181;-68
2022/11/14 05:46:09;;;;;;;7.87;7.07;;;7.30;99.50;;;;;;5033286;28;20414;-68
2022/11/14 05:48:35;;;;;;;7.03;6.40;;;7.20;99.60;;;;;;5051986;28;20421;-68
2022/11/14 05:51:02;;;;;;;8.87;8.00;;;7.20;99.60;;;;;;5050303;28;20426;-68
2022/11/14 05:53:30;;;;;;;9.07;7.20;;;7.20;99.70;;;;;;5051606;28;20194;-68
2022/11/14 05:56:00;;;;;;;10.27;9.27;;;7.20;99.60;;;;;;5031817;28;20506;-68
2022/11/14 05:58:25;;;;;;;9.90;8.90;;;7.20;99.80;;;;;;5050853;28;20385;-69
2022/11/14 06:00:51;;;;;;;9.90;8.90;;;7.20;99.90;;;;;;5051404;28;20874;-71
2022/11/14 06:03:17;;;;;;;10.37;9.00;;;7.20;99.90;;;;;;5050747;28;20236;-69
2022/11/14 06:05:42;;;;;;;10.53;9.47;;;7.30;99.90;;;;;;5051881;28;20183;-68
2022/11/14 06:08:08;;;;;;;10.20;9.20;;;7.30;99.90;;;;;;5050053;28;20616;-69
2022/11/14 06:10:35;;;;;;;9.90;8.20;;;7.20;99.90;;;;;;5049354;28;20241;-68
2022/11/14 06:13:01;;;;;;;10.33;8.77;;;7.20;99.90;;;;;;5050978;28;20412;-68
2022/11/14 06:15:27;;;;;;;11.20;10.07;;;7.20;99.90;;;;;;5051409;28;20457;-68
2022/11/14 06:17:53;;;;;;;12.10;10.80;;;7.20;99.90;;;;;;5051023;28;20410;-71
2022/11/14 06:20:19;;;;;;;10.40;9.30;;;7.20;99.90;;;;;;5051722;28;20444;-68
2022/11/14 06:22:45;;;;;;;11.50;10.30;;;7.10;99.90;;;;;;5051689;28;20439;-68
2022/11/14 06:25:11;;;;;;;14.10;11.13;;;7.10;99.90;;;;;;5049505;28;20444;-68
2022/11/14 06:27:37;;;;;;;10.60;8.83;;;7.20;99.90;;;;;;5049352;28;20632;-68
2022/11/14 06:30:03;;;;;;;11.00;9.90;;;7.20;99.90;;;;;;5047892;28;20195;-69
2022/11/14 06:32:28;;;;;;;10.47;9.37;;;7.20;99.90;;;;;;5048430;28;20703;-68
2022/11/14 06:34:54;;;;;;;11.03;9.93;;;7.20;99.90;;;;;;5047251;28;20471;-71
2022/11/14 06:37:20;;;;;;;15.10;9.10;;;7.20;99.90;;;;;;5053717;28;20184;-68
2022/11/14 06:39:45;;;;;;;11.70;10.47;;;7.20;99.90;;;;;;5037431;28;20302;-68
2022/11/14 06:42:11;;;;;;;11.63;10.27;;;7.20;99.90;;;;;;5054347;28;20191;-68
2022/11/14 06:44:37;;;;;;;20.37;12.37;;;7.20;99.90;;;;;;5051509;28;20219;-68
2022/11/14 06:47:02;;;;;;;14.20;10.33;;;7.00;99.90;;;;;;5034125;28;20629;-68
2022/11/14 06:49:28;;;;;;;11.30;10.20;;;7.00;99.90;;;;;;5016707;28;20181;-69
2022/11/14 06:51:54;;;;;;;10.63;9.53;;;7.10;99.90;;;;;;5033953;28;20230;-71
2022/11/14 06:54:19;;;;;;;11.27;10.03;;;7.10;99.90;;;;;;5036715;28;20285;-68
2022/11/14 06:56:45;;;;;;;10.97;9.83;;;7.20;99.90;;;;;;5034364;28;20215;-68
2022/11/14 06:59:11;;;;;;;11.30;10.27;;;7.20;99.90;;;;;;5052626;28;20193;-68
2022/11/14 07:01:37;;;;;;;11.10;8.80;;;7.30;99.90;;;;;;5038074;28;20181;-68
2022/11/14 07:04:03;;;;;;;13.47;11.17;;;7.20;99.90;;;;;;5034035;28;20245;-68
2022/11/14 07:06:29;;;;;;;11.07;9.00;;;7.20;99.90;;;;;;5035536;28;20263;-69
2022/11/14 07:08:56;;;;;;;10.53;9.23;;;7.20;99.90;;;;;;5045038;28;20463;-72
2022/11/14 07:11:28;;;;;;;11.37;9.50;;;7.30;99.90;;;;;;5051691;28;20825;-69
2022/11/14 07:13:59;;;;;;;12.90;11.67;;;7.30;99.90;;;;;;5046367;28;20520;-72
2022/11/14 07:16:30;;;;;;;13.40;11.17;;;7.30;99.90;;;;;;5036593;28;20979;-68
2022/11/14 07:18:59;;;;;;;11.33;9.90;;;7.30;99.90;;;;;;5053908;28;20399;-71
2022/11/14 07:21:26;;;;;;;11.50;10.13;;;7.30;99.90;;;;;;5049666;28;20431;-68
2022/11/14 07:23:52;;;;;;;13.00;10.90;;;7.30;99.90;;;;;;5022066;28;20454;-68
2022/11/14 07:26:18;;;;;;;12.73;11.53;;;7.30;99.90;;;;;;5045533;28;20454;-68
2022/11/14 07:28:44;;;;;;;14.90;11.70;;;7.30;99.90;;;;;;5040725;28;20411;-66
2022/11/14 07:31:13;;;;;;;13.50;11.87;;;7.30;99.90;;;;;;5053478;28;20179;-66
2022/11/14 07:33:40;;;;;;;13.00;11.63;;;7.30;99.90;;;;;;5053454;28;20857;-66
2022/11/14 07:36:06;;;;;;;15.80;13.00;;;7.40;99.90;;;;;;5053224;28;20438;-66
2022/11/14 07:38:33;;;;;;;22.20;13.23;;;7.40;99.90;;;;;;5045028;28;20416;-65
2022/11/14 07:41:10;;;;;;;16.03;13.20;;;7.40;99.90;;;;;;5033418;28;20419;-65
2022/11/14 07:43:37;;;;;;;16.00;13.30;;;7.40;99.90;;;;;;5035801;28;20439;-65
2022/11/14 07:46:10;;;;;;;14.43;10.67;;;7.40;99.90;;;;;;5053139;28;20476;-66
2022/11/14 07:48:36;;;;;;;13.10;11.20;;;7.40;99.90;;;;;;5053984;28;20436;-66
2022/11/14 07:51:04;;;;;;;14.27;9.67;;;7.50;99.90;;;;;;5050274;28;20855;-66
2022/11/14 07:53:30;;;;;;;13.60;12.00;;;7.50;99.90;;;;;;5000300;28;20435;-65
2022/11/14 07:56:00;;;;;;;15.50;11.97;;;7.50;99.90;;;;;;5033704;28;20415;-66
2022/11/14 07:58:26;;;;;;;15.33;11.63;;;7.60;99.90;;;;;;5022877;28;20967;-66
2022/11/14 08:00:52;;;;;;;16.23;12.40;;;7.60;99.90;;;;;;5019047;28;20485;-66
2022/11/14 08:03:18;;;;;;;17.80;12.50;;;7.60;99.90;;;;;;5053132;28;20629;-66
2022/11/14 08:05:43;;;;;;;15.60;13.10;;;7.70;99.90;;;;;;5035301;28;20446;-66
2022/11/14 08:08:09;;;;;;;21.40;12.90;;;7.60;99.90;;;;;;5048706;28;20498;-66
2022/11/14 08:10:35;;;;;;;15.60;11.07;;;7.70;99.90;;;;;;5034061;28;20185;-66
2022/11/14 08:13:03;;;;;;;18.93;11.17;;;7.70;99.90;;;;;;5051942;28;20692;-66
2022/11/14 08:15:29;;;;;;;24.63;13.73;;;7.70;99.90;;;;;;5053750;28;20197;-66
2022/11/14 08:17:59;;;;;;;14.07;12.00;;;7.70;99.90;;;;;;5053763;28;20424;-66
2022/11/14 08:20:26;;;;;;;18.63;12.37;;;7.80;99.90;;;;;;5035881;28;20415;-66
2022/11/14 08:23:03;;;;;;;16.47;12.43;;;7.90;99.90;;;;;;5053385;28;20802;-65
2022/11/14 08:25:29;;;;;;;17.37;12.17;;;7.90;99.90;;;;;;5029486;28;20834;-66
2022/11/14 08:27:55;;;;;;;20.10;13.37;;;8.00;99.90;;;;;;5033653;28;20505;-66
2022/11/14 08:30:20;;;;;;;14.80;13.17;;;8.00;99.90;;;;;;5032962;28;20669;-66
2022/11/14 08:32:46;;;;;;;15.03;13.43;;;8.10;99.90;;;;;;5016023;28;20260;-65
2022/11/14 08:35:12;;;;;;;16.30;14.50;;;8.10;99.90;;;;;;5024616;28;20270;-66
2022/11/14 08:37:38;;;;;;;16.90;13.13;;;8.20;99.90;;;;;;5052750;28;20219;-66
2022/11/14 08:40:05;;;;;;;15.10;12.73;;;8.40;99.90;;;;;;5052689;28;20439;-66
2022/11/14 08:42:31;;;;;;;15.00;12.70;;;8.70;99.90;;;;;;5046367;28;20201;-66
2022/11/14 08:44:57;;;;;;;19.90;13.20;;;9.20;99.90;;;;;;5033433;28;20493;-66
2022/11/14 08:47:22;;;;;;;14.10;12.77;;;9.80;99.90;;;;;;5033541;28;20411;-66
2022/11/14 08:49:48;;;;;;;19.53;14.37;;;10.50;99.70;;;;;;5032964;28;20468;-66
2022/11/14 08:52:14;;;;;;;15.60;12.07;;;11.40;98.40;;;;;;5032609;28;20172;-66
2022/11/14 08:54:39;;;;;;;16.80;13.10;;;12.60;95.90;;;;;;5033685;28;20213;-67
2022/11/14 08:57:05;;;;;;;14.30;12.53;;;13.40;93.40;;;;;;5034303;28;20184;-65
2022/11/14 08:59:31;;;;;;;14.57;12.73;;;13.90;91.20;;;;;;5017850;28;20187;-66
2022/11/14 09:01:59;;;;;;;17.00;12.17;;;14.40;90.00;;;;;;5034891;28;20983;-66
2022/11/14 09:04:24;;;;;;;20.47;12.73;;;14.80;86.60;;;;;;5052136;28;20185;-67
2022/11/14 09:06:50;;;;;;;16.30;14.43;;;15.30;84.30;;;;;;5052693;28;20537;-67
2022/11/14 09:09:16;;;;;;;14.70;13.13;;;15.90;83.20;;;;;;5034725;28;20186;-67
2022/11/14 09:11:44;;;;;;;15.63;13.90;;;16.40;81.90;;;;;;5018514;28;20446;-67
2022/11/14 09:14:10;;;;;;;16.63;14.67;;;16.70;79.80;;;;;;5051953;28;20556;-67
2022/11/14 09:16:36;;;;;;;18.33;16.43;;;16.80;77.90;;;;;;5027216;28;20413;-66
2022/11/14 09:19:01;;;;;;;17.67;14.80;;;16.80;77.30;;;;;;5014588;28;20178;-67
2022/11/14 09:21:27;;;;;;;17.27;15.67;;;16.70;77.90;;;;;;5033204;28;20259;-67
2022/11/14 09:23:53;;;;;;;17.87;15.20;;;16.50;79.00;;;;;;5032696;28;20182;-66
2022/11/14 09:26:18;;;;;;;17.13;15.30;;;16.20;79.10;;;;;;5032144;28;20185;-66
2022/11/14 09:28:44;;;;;;;17.40;14.63;;;16.10;80.30;;;;;;5014890;28;20178;-66
2022/11/14 09:31:12;;;;;;;16.83;15.07;;;15.90;79.90;;;;;;5032019;28;20653;-66
2022/11/14 09:33:38;;;;;;;21.87;15.13;;;15.60;80.60;;;;;;5033148;28;20186;-66
2022/11/14 09:36:07;;;;;;;17.40;14.77;;;15.30;81.50;;;;;;5048066;28;20432;-67
2022/11/14 09:38:33;;;;;;;22.20;16.37;;;15.00;82.40;;;;;;5034814;28;20205;-66
2022/11/14 09:41:14;;;;;;;21.40;17.87;;;14.70;84.80;;;;;;5052169;28;20487;-66
2022/11/14 09:43:43;;;;;;;20.10;14.77;;;14.30;85.70;;;;;;5052317;28;20403;-66
2022/11/14 09:46:38;;;;;;;17.37;15.23;;;13.90;87.20;;;;;;5051808;28;20448;-66
2022/11/14 09:49:19;;;;;;;18.53;16.67;;;13.50;90.30;;;;;;5034689;28;20431;-67
2022/11/14 09:51:51;;;;;;;20.00;14.97;;;13.20;91.30;;;;;;5034996;28;20502;-66
2022/11/14 09:54:33;;;;;;;19.53;15.70;;;13.00;92.20;;;;;;5014157;28;20455;-67
2022/11/14 09:56:59;;;;;;;19.13;15.23;;;12.50;93.70;;;;;;5032499;28;20405;-66
2022/11/14 09:59:26;;;;;;;16.83;14.80;;;11.90;95.70;;;;;;5050365;28;20769;-66
2022/11/14 10:02:35;;;;;;;19.20;14.97;;;11.50;97.10;;;;;;5052225;28;20181;-66
2022/11/14 10:05:13;;;;;;;17.53;13.30;;;11.60;98.00;;;;;;5000580;28;20421;-66
2022/11/14 10:07:55;;;;;;;18.30;16.40;;;11.60;98.30;;;;;;5046188;28;20466;-66
2022/11/14 10:10:51;;;;;;;17.20;14.20;;;11.60;98.40;;;;;;5035970;28;20420;-67
2022/11/14 10:13:35;;;;;;;17.73;14.83;;;11.60;98.40;;;;;;5017868;28;20738;-66
2022/11/14 10:16:17;;;;;;;16.93;14.93;;;11.70;98.80;;;;;;5055093;28;20850;-66
2022/11/14 10:18:43;;;;;;;16.60;13.77;;;11.70;99.30;;;;;;5037263;28;20407;-67
2022/11/14 10:21:37;;;;;;;18.50;13.47;;;11.70;99.10;;;;;;5053764;28;20466;-66
2022/11/14 10:24:33;;;;;;;15.97;13.33;;;11.80;99.50;;;;;;5038037;28;20177;-66
2022/11/14 10:27:04;;;;;;;16.20;13.07;;;11.80;99.90;;;;;;5054711;28;20434;-67
2022/11/14 10:29:50;;;;;;;15.60;11.83;;;11.80;99.90;;;;;;5036395;28;20463;-66
2022/11/14 10:32:39;;;;;;;16.93;13.13;;;11.90;99.30;;;;;;5035377;28;20416;-67
2022/11/14 10:35:39;;;;;;;15.47;12.20;;;11.80;98.90;;;;;;5055100;28;20447;-67
2022/11/14 10:38:25;;;;;;;17.57;12.40;;;11.80;99.10;;;;;;5055318;28;20411;-66
2022/11/14 10:40:57;;;;;;;13.37;11.43;;;11.90;99.10;;;;;;5055740;28;20397;-66
2022/11/14 10:43:38;;;;;;;13.73;10.87;;;11.80;99.30;;;;;;5055082;28;20427;-66
2022/11/14 10:46:33;;;;;;;15.03;12.10;;;11.70;99.40;;;;;;5055660;28;20398;-66
2022/11/14 10:48:59;;;;;;;15.10;11.73;;;11.70;99.40;;;;;;5037665;28;20737;-66
2022/11/14 10:51:42;;;;;;;14.20;11.70;;;11.70;99.60;;;;;;5054887;28;20415;-66
2022/11/14 10:54:23;;;;;;;15.30;11.77;;;11.80;99.90;;;;;;5054490;28;21003;-66
2022/11/14 10:56:51;;;;;;;16.63;12.67;;;11.80;99.90;;;;;;5055583;28;20397;-66
2022/11/14 10:59:16;;;;;;;16.27;12.37;;;11.70;99.60;;;;;;5053289;28;20517;-66
2022/11/14 11:01:53;;;;;;;14.23;12.77;;;11.70;99.70;;;;;;5055303;28;20496;-66
2022/11/14 11:04:22;;;;;;;13.37;11.97;;;11.70;99.80;;;;;;5054837;28;20262;-66
2022/11/14 11:06:50;;;;;;;14.90;12.67;;;11.90;99.90;;;;;;5054669;28;20944;-66
2022/11/14 11:12:17;;;;;;;13.80;10.97;;;12.00;99.30;;;;;;5036431;28;20424;-66
2022/11/14 11:14:48;;;;;;;13.63;11.40;;;11.90;99.40;;;;;;5054593;28;20456;-66
2022/11/14 11:17:17;;;;;;;15.90;11.67;;;12.00;99.90;;;;;;5053589;28;20400;-66
2022/11/14 11:19:43;;;;;;;12.50;11.20;;;12.30;99.20;;;;;;5019473;28;20421;-66
2022/11/14 11:22:25;;;;;;;12.97;11.47;;;12.60;98.60;;;;;;5053999;28;20410;-66
2022/11/14 11:24:51;;;;;;;12.20;10.90;;;13.00;99.00;;;;;;5054700;28;20450;-66
2022/11/14 11:27:26;;;;;;;16.90;12.77;;;13.40;97.20;;;;;;5036312;28;20448;-66
2022/11/14 11:30:05;;;;;;;13.10;11.90;;;14.00;97.10;;;;;;5053662;28;20212;-67
2022/11/14 11:32:31;;;;;;;12.37;11.07;;;14.30;95.00;;;;;;5054065;28;20404;-66
2022/11/14 11:35:00;;;;;;;13.97;12.77;;;14.50;94.10;;;;;;5054513;28;20477;-66
2022/11/14 11:37:30;;;;;;;14.27;12.80;;;14.60;93.60;;;;;;5053611;28;20410;-66
2022/11/14 11:40:01;;;;;;;11.77;10.40;;;14.40;93.50;;;;;;5054199;28;20428;-67
2022/11/14 11:42:38;;;;;;;14.57;13.10;;;14.40;93.60;;;;;;5053927;28;20400;-66
2022/11/14 11:45:16;;;;;;;12.23;10.50;;;13.80;93.90;;;;;;5054660;28;20549;-66
2022/11/14 11:48:00;;;;;;;12.33;9.90;;;14.00;94.60;;;;;;4992623;28;20934;-66
2022/11/14 11:50:26;;;;;;;12.33;10.10;;;13.20;95.90;;;;;;4992296;28;20403;-66
2022/11/14 11:53:11;;;;;;;12.67;11.33;;;13.00;97.30;;;;;;4992678;28;20813;-66
2022/11/14 11:55:44;;;;;;;12.93;10.27;;;13.10;96.80;;;;;;4992684;28;20461;-66
2022/11/14 11:58:35;;;;;;;12.20;11.00;;;13.00;98.00;;;;;;4980098;28;20938;-70
2022/11/14 12:01:01;;;;;;;12.97;10.57;;;13.30;97.30;;;;;;4973169;28;20420;-66
2022/11/14 12:03:27;;;;;;;12.43;11.20;;;13.60;96.70;;;;;;4972408;28;20426;-66
2022/11/14 12:06:16;;;;;;;12.80;11.37;;;13.60;95.70;;;;;;4957130;28;20628;-66
2022/11/14 12:09:04;;;;;;;13.03;10.90;;;13.80;95.80;;;;;;4972975;28;20208;-66
2022/11/14 12:11:36;;;;;;;11.20;9.93;;;13.80;95.60;;;;;;4972239;28;20439;-66
2022/11/14 12:14:07;;;;;;;9.47;8.60;;;13.90;95.70;;;;;;4956447;28;20510;-66
2022/11/14 12:16:54;;;;;;;11.10;10.00;;;14.00;95.40;;;;;;4971981;28;20411;-66
2022/11/14 12:19:38;;;;;;;14.33;10.90;;;13.90;95.80;;;;;;5001036;28;20969;-67
2022/11/14 12:22:33;;;;;;;10.60;9.53;;;14.00;96.00;;;;;;5033835;28;20408;-67
2022/11/14 12:25:17;;;;;;;11.50;9.70;;;14.00;95.30;;;;;;5041454;28;20492;-66
2022/11/14 12:27:55;;;;;;;10.50;9.60;;;13.90;95.80;;;;;;5053395;28;20475;-66
2022/11/14 12:30:23;;;;;;;11.53;10.30;;;14.00;96.00;;;;;;5052530;28;20545;-67
2022/11/14 12:32:57;;;;;;;11.50;10.30;;;14.00;95.70;;;;;;5053447;28;20423;-66
2022/11/14 12:35:32;;;;;;;11.23;10.20;;;14.10;96.00;;;;;;5052484;28;20504;-66
2022/11/14 12:38:02;;;;;;;13.53;11.07;;;14.00;96.30;;;;;;5035644;28;20418;-67
2022/11/14 12:40:40;;;;;;;11.00;9.90;;;14.00;96.10;;;;;;5052460;28;20480;-66
2022/11/14 12:43:43;;;;;;;10.40;9.40;;;14.00;96.10;;;;;;5053673;28;20387;-67
2022/11/14 12:46:11;;;;;;;10.60;9.50;;;14.00;96.80;;;;;;5018497;28;20783;-66
2022/11/14 12:48:43;;;;;;;10.10;9.10;;;14.00;96.50;;;;;;5052943;28;20404;-66
2022/11/14 12:51:34;;;;;;;10.50;9.50;;;14.00;96.50;;;;;;5053006;28;20454;-66